Time;durP1;ratioP1;P1;durP2;ratioP2;P2;SDS_P1;SDS_P2;PMS_P1;PMS_P2;Temp;Humidity;BMP_temperature;BMP_pressure;BME280_temperature;BME280_humidity;BME280_pressure;Samples;Min_cycle;Max_cycle;Signal;HPM_P1;HPM_P2
2020/12/03 00:00:49;;;;;;;21.73;5.97;;;8.60;93.30;;;;;;4993932;28;20205;-78
2020/12/03 00:03:23;;;;;;;23.40;7.03;;;8.50;93.30;;;;;;5009860;28;20053;-76
2020/12/03 00:06:01;;;;;;;25.88;8.07;;;8.50;93.30;;;;;;5010384;28;20511;-76
2020/12/03 00:08:34;;;;;;;20.10;6.72;;;8.60;93.30;;;;;;4993406;28;20049;-76
2020/12/03 00:11:00;;;;;;;17.27;6.07;;;8.60;93.30;;;;;;5012613;28;20108;-76
2020/12/03 00:13:28;;;;;;;22.20;6.90;;;8.50;93.20;;;;;;5012368;28;20038;-76
2020/12/03 00:15:56;;;;;;;21.50;6.82;;;8.50;93.20;;;;;;5011307;28;20017;-76
2020/12/03 00:18:23;;;;;;;25.10;7.53;;;8.50;93.20;;;;;;5010815;28;20389;-77
2020/12/03 00:20:49;;;;;;;23.23;7.40;;;8.50;93.20;;;;;;5027772;28;20026;-76
2020/12/03 00:23:16;;;;;;;20.90;6.07;;;8.60;93.20;;;;;;5010646;28;20026;-76
2020/12/03 00:25:43;;;;;;;27.20;7.80;;;8.60;93.20;;;;;;5027370;28;20084;-76
2020/12/03 00:28:09;;;;;;;22.17;6.70;;;8.60;93.20;;;;;;5027136;28;20343;-76
2020/12/03 00:30:34;;;;;;;23.65;6.45;;;8.60;93.20;;;;;;5012178;28;20029;-76
2020/12/03 00:33:00;;;;;;;23.23;6.25;;;8.60;93.20;;;;;;5012351;28;20026;-77
2020/12/03 00:35:26;;;;;;;24.45;7.90;;;8.60;93.20;;;;;;5010740;28;20022;-76
2020/12/03 00:37:52;;;;;;;28.38;7.75;;;8.60;93.10;;;;;;5011241;28;20490;-76
2020/12/03 00:40:19;;;;;;;19.85;6.82;;;8.60;93.20;;;;;;5010583;28;20018;-76
2020/12/03 00:42:45;;;;;;;20.30;6.50;;;8.60;93.20;;;;;;5013042;28;20022;-77
2020/12/03 00:45:11;;;;;;;31.73;7.13;;;8.60;93.20;;;;;;5030993;28;20386;-77
2020/12/03 00:47:39;;;;;;;19.27;7.63;;;8.60;93.10;;;;;;5016191;28;20022;-77
2020/12/03 00:50:07;;;;;;;23.60;8.00;;;8.60;93.10;;;;;;5014760;28;20027;-77
2020/12/03 00:52:32;;;;;;;26.73;7.25;;;8.60;93.10;;;;;;5014922;28;20030;-77
2020/12/03 00:54:58;;;;;;;26.75;6.65;;;8.60;93.10;;;;;;5017186;28;20057;-77
2020/12/03 00:57:24;;;;;;;27.35;7.57;;;8.60;93.10;;;;;;5014272;28;20355;-77
2020/12/03 00:59:49;;;;;;;27.10;7.47;;;8.60;93.10;;;;;;5016159;28;20115;-76
2020/12/03 01:02:15;;;;;;;31.17;8.80;;;8.60;93.10;;;;;;5013757;28;20417;-77
2020/12/03 01:04:42;;;;;;;24.90;7.35;;;8.60;93.10;;;;;;5014409;28;20072;-77
2020/12/03 01:07:08;;;;;;;27.23;7.95;;;8.60;93.10;;;;;;5013982;28;20018;-84
2020/12/03 01:09:38;;;;;;;22.98;7.72;;;8.60;93.10;;;;;;5014473;28;20091;-77
2020/12/03 01:12:06;;;;;;;31.05;8.52;;;8.50;93.10;;;;;;5015504;28;20033;-77
2020/12/03 01:14:34;;;;;;;27.02;9.13;;;8.60;93.10;;;;;;5013913;28;20216;-77
2020/12/03 01:17:05;;;;;;;22.08;7.30;;;8.60;93.10;;;;;;5014448;28;20026;-77
2020/12/03 01:19:31;;;;;;;24.80;7.05;;;8.60;93.10;;;;;;5013783;28;20022;-76
2020/12/03 01:21:56;;;;;;;24.00;7.70;;;8.50;93.10;;;;;;5014376;28;20370;-76
2020/12/03 01:24:22;;;;;;;30.27;10.35;;;8.50;93.10;;;;;;5015090;28;20488;-77
2020/12/03 01:26:48;;;;;;;29.08;7.68;;;8.50;93.10;;;;;;5015669;28;20454;-77
2020/12/03 01:29:17;;;;;;;24.88;7.68;;;8.50;93.10;;;;;;5013735;28;20026;-78
2020/12/03 01:31:42;;;;;;;28.27;7.85;;;8.50;93.10;;;;;;5015330;28;20053;-76
2020/12/03 01:34:08;;;;;;;19.55;7.32;;;8.60;93.10;;;;;;5013281;28;20050;-76
2020/12/03 01:36:34;;;;;;;21.38;6.95;;;8.60;93.10;;;;;;5016024;28;20109;-76
2020/12/03 01:39:00;;;;;;;24.35;6.38;;;8.60;93.10;;;;;;5016306;28;20022;-76
2020/12/03 01:41:25;;;;;;;25.63;9.38;;;8.50;93.10;;;;;;5014768;28;20029;-76
2020/12/03 01:43:51;;;;;;;22.17;7.32;;;8.50;93.10;;;;;;5014083;28;20036;-76
2020/12/03 01:46:17;;;;;;;26.25;6.90;;;8.50;93.10;;;;;;5013405;28;20022;-76
2020/12/03 01:48:48;;;;;;;27.17;9.05;;;8.60;93.10;;;;;;5013814;28;20128;-76
2020/12/03 01:51:35;;;;;;;23.73;7.30;;;8.50;93.10;;;;;;5012961;28;20022;-76
2020/12/03 01:54:11;;;;;;;26.23;7.55;;;8.60;93.10;;;;;;5012160;28;20788;-76
2020/12/03 01:56:56;;;;;;;27.08;7.50;;;8.60;93.10;;;;;;5013732;28;20061;-76
2020/12/03 01:59:24;;;;;;;26.92;8.70;;;8.60;93.10;;;;;;5013051;28;20018;-76
2020/12/03 02:01:51;;;;;;;25.05;8.13;;;8.50;93.10;;;;;;5013548;28;20480;-76
2020/12/03 02:04:16;;;;;;;25.88;7.88;;;8.50;93.10;;;;;;5014416;28;20026;-76
2020/12/03 02:06:42;;;;;;;24.23;6.75;;;8.50;93.10;;;;;;5013258;28;20079;-76
2020/12/03 02:09:12;;;;;;;23.58;7.45;;;8.50;93.10;;;;;;5013396;28;20037;-77
2020/12/03 02:11:38;;;;;;;18.25;6.63;;;8.50;93.10;;;;;;5014870;28;20466;-77
2020/12/03 02:14:08;;;;;;;24.15;7.22;;;8.50;93.10;;;;;;5014324;28;20105;-76
2020/12/03 02:16:39;;;;;;;15.30;5.63;;;8.50;93.10;;;;;;5014035;28;20036;-77
2020/12/03 02:19:15;;;;;;;;;;;8.50;93.10;;;;;;5013640;28;20426;-76
2020/12/03 02:21:43;;;;;;;18.65;6.97;;;8.40;93.00;;;;;;5014817;28;19905;-76
2020/12/03 02:24:08;;;;;;;18.80;5.93;;;8.40;93.10;;;;;;5014272;28;20470;-76
2020/12/03 02:26:34;;;;;;;22.30;8.00;;;8.40;93.10;;;;;;5012426;28;20029;-76
2020/12/03 02:28:59;;;;;;;17.50;6.45;;;8.40;93.10;;;;;;5012987;28;20029;-75
2020/12/03 02:31:25;;;;;;;28.50;8.20;;;8.40;93.00;;;;;;5012372;28;20030;-77
2020/12/03 02:33:51;;;;;;;21.45;7.43;;;8.40;93.00;;;;;;5013901;28;20048;-76
2020/12/03 02:36:16;;;;;;;25.77;8.75;;;8.40;93.00;;;;;;5013646;28;20493;-77
2020/12/03 02:38:42;;;;;;;27.02;7.75;;;8.40;93.00;;;;;;5012886;28;20030;-76
2020/12/03 02:41:09;;;;;;;20.23;6.80;;;8.40;93.00;;;;;;5012499;28;20121;-76
2020/12/03 02:43:36;;;;;;;22.40;7.25;;;8.40;93.00;;;;;;5012173;28;20022;-77
2020/12/03 02:46:02;;;;;;;19.27;7.75;;;8.40;93.00;;;;;;5012511;28;20029;-77
2020/12/03 02:48:28;;;;;;;25.25;7.82;;;8.40;93.00;;;;;;5013379;28;20022;-77
2020/12/03 02:50:53;;;;;;;23.02;7.57;;;8.30;92.90;;;;;;5012723;28;20084;-77
2020/12/03 02:53:19;;;;;;;20.38;5.57;;;8.30;93.00;;;;;;5013165;28;20029;-76
2020/12/03 02:55:44;;;;;;;17.23;5.80;;;8.40;93.00;;;;;;5012130;28;20054;-77
2020/12/03 02:58:10;;;;;;;16.17;6.10;;;8.30;93.00;;;;;;5013322;28;20033;-76
2020/12/03 03:00:36;;;;;;;20.70;7.03;;;8.30;93.00;;;;;;5011743;28;20112;-76
2020/12/03 03:03:01;;;;;;;23.17;8.18;;;8.30;93.20;;;;;;5012493;28;20109;-76
2020/12/03 03:05:27;;;;;;;13.98;5.63;;;8.30;93.00;;;;;;5012711;28;20022;-77
2020/12/03 03:07:53;;;;;;;21.85;7.45;;;8.30;92.90;;;;;;5013335;28;20387;-76
2020/12/03 03:10:21;;;;;;;22.67;7.05;;;8.30;92.90;;;;;;5011679;28;20028;-77
2020/12/03 03:12:50;;;;;;;24.30;7.30;;;8.30;92.90;;;;;;5014654;28;20025;-76
2020/12/03 03:15:17;;;;;;;19.98;5.72;;;8.30;92.90;;;;;;5011568;28;20358;-77
2020/12/03 03:17:43;;;;;;;15.63;5.82;;;8.30;92.90;;;;;;5028555;28;20037;-76
2020/12/03 03:20:09;;;;;;;17.65;4.90;;;8.30;92.90;;;;;;5012065;28;20026;-76
2020/12/03 03:22:35;;;;;;;17.13;5.40;;;8.30;92.90;;;;;;5011630;28;20237;-77
2020/12/03 03:25:01;;;;;;;20.90;6.40;;;8.30;92.90;;;;;;5028398;28;20026;-76
2020/12/03 03:27:26;;;;;;;21.27;6.22;;;8.30;93.00;;;;;;5011320;28;20029;-76
2020/12/03 03:29:52;;;;;;;14.40;5.30;;;8.20;92.90;;;;;;5011317;28;20022;-77
2020/12/03 03:32:17;;;;;;;17.98;6.72;;;8.20;93.00;;;;;;5011825;28;20022;-77
2020/12/03 03:34:43;;;;;;;19.92;6.47;;;8.20;93.00;;;;;;5011135;28;20124;-78
2020/12/03 03:37:09;;;;;;;20.08;6.78;;;8.20;93.00;;;;;;5011268;28;20125;-78
2020/12/03 03:39:35;;;;;;;16.55;6.93;;;8.20;93.00;;;;;;5011934;28;20025;-77
2020/12/03 03:42:00;;;;;;;17.15;5.72;;;8.20;93.00;;;;;;5012037;28;20030;-76
2020/12/03 03:44:26;;;;;;;19.63;6.32;;;8.20;93.00;;;;;;5010070;28;20057;-76
2020/12/03 03:46:52;;;;;;;16.45;6.03;;;8.20;92.90;;;;;;5010987;28;20124;-77
2020/12/03 03:49:18;;;;;;;20.77;6.22;;;8.20;93.00;;;;;;5010346;28;20482;-77
2020/12/03 03:51:44;;;;;;;22.33;6.45;;;8.20;92.90;;;;;;5012187;28;20054;-77
2020/12/03 03:54:09;;;;;;;19.95;6.40;;;8.20;93.00;;;;;;5011859;28;20058;-77
2020/12/03 03:56:35;;;;;;;14.93;6.30;;;8.20;93.00;;;;;;5010832;28;20318;-77
2020/12/03 03:59:01;;;;;;;18.45;6.28;;;8.20;92.90;;;;;;5011327;28;20019;-76
2020/12/03 04:01:27;;;;;;;17.58;5.85;;;8.20;92.90;;;;;;5010871;28;20029;-77
2020/12/03 04:03:52;;;;;;;16.77;5.18;;;8.20;92.80;;;;;;5011475;28;20470;-77
2020/12/03 04:06:18;;;;;;;16.95;5.78;;;8.20;92.80;;;;;;5010773;28;20022;-77
2020/12/03 04:08:43;;;;;;;19.35;6.45;;;8.20;92.80;;;;;;5011228;28;20025;-76
2020/12/03 04:11:09;;;;;;;17.58;5.32;;;8.30;92.80;;;;;;5011305;28;20033;-77
2020/12/03 04:13:35;;;;;;;20.63;5.68;;;8.30;92.80;;;;;;5012129;28;20463;-77
2020/12/03 04:16:01;;;;;;;13.20;5.15;;;8.30;92.80;;;;;;5012480;28;20026;-77
2020/12/03 04:18:27;;;;;;;17.40;5.15;;;8.30;92.70;;;;;;5011593;28;20026;-76
2020/12/03 04:20:59;;;;;;;16.92;5.90;;;8.30;92.70;;;;;;5011113;28;20460;-77
2020/12/03 04:23:24;;;;;;;16.92;6.72;;;8.30;92.60;;;;;;5011891;28;20022;-77
2020/12/03 04:25:50;;;;;;;19.58;6.18;;;8.30;92.60;;;;;;5011215;28;20018;-77
2020/12/03 04:28:16;;;;;;;22.65;5.93;;;8.30;92.60;;;;;;5011143;28;20029;-77
2020/12/03 04:30:42;;;;;;;20.95;5.93;;;8.30;92.50;;;;;;5010642;28;20474;-77
2020/12/03 04:33:08;;;;;;;13.35;5.43;;;8.30;92.50;;;;;;5012469;28;20026;-77
2020/12/03 04:35:37;;;;;;;15.82;4.80;;;8.30;92.50;;;;;;5010548;28;20038;-76
2020/12/03 04:38:04;;;;;;;16.33;5.10;;;8.30;92.50;;;;;;5011149;28;20473;-77
2020/12/03 04:40:39;;;;;;;16.77;6.22;;;8.30;92.50;;;;;;5011819;28;20028;-78
2020/12/03 04:43:37;;;;;;;14.25;5.43;;;8.40;92.60;;;;;;5012438;28;20014;-77
2020/12/03 04:46:26;;;;;;;16.52;5.78;;;8.40;92.50;;;;;;5011199;28;20033;-77
2020/12/03 04:49:25;;;;;;;17.80;6.55;;;8.40;92.50;;;;;;5011000;28;20029;-77
2020/12/03 04:52:22;;;;;;;16.77;5.82;;;8.40;92.50;;;;;;5011050;28;20033;-77
2020/12/03 04:55:18;;;;;;;17.27;6.43;;;8.30;92.50;;;;;;5004279;28;20042;-77
2020/12/03 04:58:08;;;;;;;19.95;7.00;;;8.30;92.50;;;;;;5010350;28;20105;-77
2020/12/03 05:00:49;;;;;;;19.67;7.07;;;8.30;92.50;;;;;;5028059;28;20116;-77
2020/12/03 05:03:30;;;;;;;18.75;7.18;;;8.30;92.50;;;;;;5029611;28;20026;-78
2020/12/03 05:06:24;;;;;;;18.23;7.72;;;8.30;92.50;;;;;;5031551;28;20049;-77
2020/12/03 05:09:03;;;;;;;18.27;6.43;;;8.30;92.40;;;;;;5030430;28;20021;-78
2020/12/03 05:11:45;;;;;;;17.98;6.20;;;8.30;92.50;;;;;;5030029;28;20033;-77
2020/12/03 05:14:25;;;;;;;;;;;8.40;92.50;;;;;;5032161;28;20457;-77
2020/12/03 05:17:09;;;;;;;18.00;5.53;;;8.30;92.40;;;;;;5030006;28;19930;-78
2020/12/03 05:19:41;;;;;;;16.85;5.57;;;8.40;92.50;;;;;;5031271;28;20075;-77
2020/12/03 05:22:17;;;;;;;15.95;5.68;;;8.40;92.50;;;;;;5030213;28;20378;-77
2020/12/03 05:24:43;;;;;;;14.70;5.55;;;8.40;92.50;;;;;;5029556;28;20029;-78
2020/12/03 05:27:22;;;;;;;19.42;6.15;;;8.30;92.50;;;;;;5030355;28;20171;-73
2020/12/03 05:29:48;;;;;;;17.27;5.82;;;8.40;92.50;;;;;;5031965;28;20462;-75
2020/12/03 05:32:15;;;;;;;15.52;5.38;;;8.40;92.50;;;;;;5033179;28;20022;-73
2020/12/03 05:34:40;;;;;;;13.32;5.50;;;8.40;92.50;;;;;;5032150;28;20041;-73
2020/12/03 05:37:13;;;;;;;17.77;6.25;;;8.40;92.50;;;;;;5031297;28;20034;-73
2020/12/03 05:39:51;;;;;;;19.27;6.25;;;8.40;92.50;;;;;;5032050;28;20022;-74
2020/12/03 05:42:31;;;;;;;16.02;5.68;;;8.40;92.50;;;;;;5030898;28;20567;-73
2020/12/03 05:44:59;;;;;;;19.55;6.03;;;8.50;92.50;;;;;;5032293;28;20037;-74
2020/12/03 05:47:31;;;;;;;15.32;6.22;;;8.40;92.40;;;;;;5030110;28;20025;-74
2020/12/03 05:50:29;;;;;;;22.80;6.57;;;8.40;92.40;;;;;;5032429;28;20033;-74
2020/12/03 05:53:05;;;;;;;15.73;5.68;;;8.40;92.40;;;;;;5031991;28;20536;-76
2020/12/03 05:55:33;;;;;;;16.77;6.15;;;8.40;92.40;;;;;;5033176;28;20054;-76
2020/12/03 05:58:22;;;;;;;19.42;6.20;;;8.40;92.40;;;;;;5032753;28;20076;-75
2020/12/03 06:00:50;;;;;;;22.15;5.75;;;8.50;92.50;;;;;;5034280;28;20067;-75
2020/12/03 06:03:39;;;;;;;17.50;5.47;;;8.40;92.50;;;;;;5034143;28;20036;-74
2020/12/03 06:06:42;;;;;;;17.08;5.82;;;8.50;92.50;;;;;;5032968;28;20018;-74
2020/12/03 06:09:17;;;;;;;15.77;4.93;;;8.50;92.40;;;;;;5034140;28;20392;-74
2020/12/03 06:11:54;;;;;;;15.25;5.15;;;8.50;92.50;;;;;;5033379;28;20056;-73
2020/12/03 06:14:53;;;;;;;12.55;5.20;;;8.50;92.50;;;;;;5032650;28;20101;-74
2020/12/03 06:18:04;;;;;;;18.02;5.57;;;8.40;92.40;;;;;;5032862;28;20025;-75
2020/12/03 06:20:56;;;;;;;18.85;5.43;;;8.40;92.50;;;;;;5032125;28;20033;-76
2020/12/03 06:23:37;;;;;;;15.00;5.53;;;8.40;92.50;;;;;;5033989;28;20544;-76
2020/12/03 06:26:30;;;;;;;11.43;4.00;;;8.30;92.50;;;;;;5032781;28;20048;-74
2020/12/03 06:29:26;;;;;;;13.77;3.78;;;8.40;92.50;;;;;;5032596;28;20376;-75
2020/12/03 06:32:29;;;;;;;15.40;4.30;;;8.30;92.50;;;;;;5032876;28;20030;-76
2020/12/03 06:35:04;;;;;;;9.00;3.78;;;8.30;92.50;;;;;;5032352;28;20029;-76
2020/12/03 06:38:08;;;;;;;10.23;3.72;;;8.30;92.60;;;;;;5032100;28;20033;-76
2020/12/03 06:40:38;;;;;;;11.15;4.05;;;8.30;92.50;;;;;;5020440;28;20110;-76
2020/12/03 06:43:12;;;;;;;8.52;3.67;;;8.20;92.60;;;;;;5032330;28;20021;-75
2020/12/03 06:46:02;;;;;;;10.98;3.75;;;8.30;92.60;;;;;;5032855;28;20029;-74
2020/12/03 06:49:00;;;;;;;10.88;3.70;;;8.20;92.60;;;;;;5031671;28;20033;-75
2020/12/03 06:51:54;;;;;;;13.70;4.30;;;8.20;92.60;;;;;;5031442;28;20480;-78
2020/12/03 06:54:42;;;;;;;10.73;3.40;;;8.30;92.60;;;;;;5033170;28;20103;-75
2020/12/03 06:57:31;;;;;;;10.77;4.07;;;8.30;92.60;;;;;;5032218;28;20080;-75
2020/12/03 07:00:15;;;;;;;9.07;3.13;;;8.30;92.60;;;;;;5033354;28;20112;-75
2020/12/03 07:03:25;;;;;;;9.05;3.50;;;8.20;92.60;;;;;;5031412;28;20484;-76
2020/12/03 07:06:08;;;;;;;10.60;3.47;;;8.20;92.60;;;;;;5031228;28;20416;-75
2020/12/03 07:09:04;;;;;;;9.98;4.30;;;8.20;92.70;;;;;;5030825;28;20068;-75
2020/12/03 07:11:44;;;;;;;10.00;3.60;;;8.10;92.70;;;;;;5032325;28;20030;-76
2020/12/03 07:14:35;;;;;;;8.55;3.00;;;8.00;92.80;;;;;;5031594;28;20082;-75
2020/12/03 07:17:19;;;;;;;11.23;3.75;;;8.10;92.80;;;;;;5031720;28;20026;-75
2020/12/03 07:20:01;;;;;;;9.23;2.90;;;8.00;92.80;;;;;;5031176;28;20072;-75
2020/12/03 07:22:31;;;;;;;8.48;2.97;;;8.00;92.90;;;;;;5031668;28;20030;-75
2020/12/03 07:24:58;;;;;;;10.68;2.80;;;8.00;92.90;;;;;;5032802;28;20044;-75
2020/12/03 07:27:58;;;;;;;11.25;3.58;;;8.00;92.90;;;;;;5032550;28;20480;-75
2020/12/03 07:30:52;;;;;;;9.60;3.08;;;8.00;92.90;;;;;;5031491;28;20112;-75
2020/12/03 07:33:55;;;;;;;11.45;3.35;;;8.00;92.90;;;;;;5032217;28;20465;-76
2020/12/03 07:36:54;;;;;;;14.05;3.53;;;8.00;92.90;;;;;;5032631;28;20041;-75
2020/12/03 07:39:26;;;;;;;9.70;3.38;;;8.00;92.90;;;;;;5029442;28;20112;-75
2020/12/03 07:41:58;;;;;;;12.40;3.95;;;8.00;92.90;;;;;;5030768;28;20017;-75
2020/12/03 07:44:38;;;;;;;14.10;4.05;;;8.00;92.90;;;;;;5031323;28;20033;-75
2020/12/03 07:47:31;;;;;;;17.08;5.05;;;7.90;92.90;;;;;;5030845;28;20074;-76
2020/12/03 07:49:58;;;;;;;17.45;4.70;;;7.90;92.90;;;;;;5032370;28;20022;-74
2020/12/03 07:52:37;;;;;;;12.15;4.88;;;7.90;93.00;;;;;;5030134;28;20373;-75
2020/12/03 07:55:21;;;;;;;19.05;5.93;;;7.90;93.00;;;;;;5030810;28;20136;-75
2020/12/03 07:57:54;;;;;;;17.88;4.40;;;7.90;93.00;;;;;;5030360;28;20424;-75
2020/12/03 08:00:29;;;;;;;14.88;4.88;;;7.90;93.00;;;;;;5031017;28;20049;-75
2020/12/03 08:02:57;;;;;;;13.68;4.57;;;7.90;93.00;;;;;;5030945;28;20112;-76
2020/12/03 08:05:38;;;;;;;16.40;5.13;;;7.90;93.00;;;;;;5030973;28;20084;-75
2020/12/03 08:08:23;;;;;;;;;;;7.90;92.90;;;;;;5032815;28;20426;-76
2020/12/03 08:10:50;;;;;;;14.23;4.57;;;7.90;92.90;;;;;;5030102;28;20349;-75
2020/12/03 08:13:27;;;;;;;13.70;5.30;;;7.90;92.90;;;;;;5030868;28;20026;-76
2020/12/03 08:16:03;;;;;;;16.60;4.00;;;7.90;92.90;;;;;;5031518;28;20069;-75
2020/12/03 08:18:57;;;;;;;13.73;4.95;;;7.90;93.00;;;;;;5030741;28;20022;-75
2020/12/03 08:21:39;;;;;;;11.48;4.15;;;7.90;92.90;;;;;;5032142;28;20021;-75
2020/12/03 08:24:06;;;;;;;;;;;8.00;92.90;;;;;;5032345;28;20032;-75
2020/12/03 08:26:33;;;;;;;9.77;4.03;;;7.80;92.90;;;;;;5030000;28;20264;-76
2020/12/03 08:28:59;;;;;;;14.35;4.80;;;7.90;92.90;;;;;;5030598;28;20104;-75
2020/12/03 08:31:24;;;;;;;15.38;5.25;;;7.80;92.90;;;;;;5030381;28;20072;-75
2020/12/03 08:33:53;;;;;;;11.50;3.67;;;7.80;93.00;;;;;;5029894;28;20038;-75
2020/12/03 08:36:21;;;;;;;9.50;3.28;;;7.80;93.00;;;;;;5030653;28;20052;-75
2020/12/03 08:38:54;;;;;;;12.63;3.65;;;7.80;93.00;;;;;;5031061;28;20025;-75
2020/12/03 08:41:25;;;;;;;11.20;4.38;;;7.90;93.00;;;;;;5031879;28;20021;-75
2020/12/03 08:43:53;;;;;;;12.73;4.20;;;7.80;92.90;;;;;;5031322;28;20029;-76
2020/12/03 08:46:23;;;;;;;10.60;3.88;;;7.90;93.00;;;;;;5030945;28;20025;-77
2020/12/03 08:48:48;;;;;;;18.13;4.90;;;7.80;92.90;;;;;;5031183;28;20461;-77
2020/12/03 08:51:16;;;;;;;15.95;5.03;;;7.90;92.90;;;;;;5030152;28;20156;-75
2020/12/03 08:53:45;;;;;;;13.75;4.18;;;7.90;92.90;;;;;;5031165;28;20025;-75
2020/12/03 08:56:16;;;;;;;10.98;3.85;;;7.90;92.90;;;;;;5030178;28;20048;-76
2020/12/03 08:59:15;;;;;;;13.13;4.28;;;8.00;92.90;;;;;;5031212;28;20029;-76
2020/12/03 09:01:56;;;;;;;15.23;4.47;;;8.00;92.90;;;;;;5028352;28;20489;-76
2020/12/03 09:04:24;;;;;;;12.67;5.37;;;8.00;92.90;;;;;;5033153;28;20108;-76
2020/12/03 09:06:54;;;;;;;10.32;4.55;;;8.00;92.90;;;;;;5032990;28;20315;-76
2020/12/03 09:09:22;;;;;;;17.02;4.63;;;8.00;92.90;;;;;;5033972;28;20053;-76
2020/12/03 09:11:48;;;;;;;8.57;3.53;;;8.00;92.90;;;;;;5034565;28;20028;-76
2020/12/03 09:14:15;;;;;;;9.80;3.35;;;8.00;92.90;;;;;;5034889;28;20033;-76
2020/12/03 09:16:45;;;;;;;14.45;4.82;;;8.00;92.90;;;;;;5034730;28;20076;-76
2020/12/03 09:19:10;;;;;;;12.68;4.65;;;8.00;92.90;;;;;;5035149;28;20029;-77
2020/12/03 09:21:40;;;;;;;11.35;3.72;;;8.00;92.90;;;;;;5034435;28;20087;-75
2020/12/03 09:24:10;;;;;;;15.45;4.65;;;8.00;92.90;;;;;;5033996;28;20112;-74
2020/12/03 09:26:36;;;;;;;11.75;4.22;;;8.00;93.10;;;;;;5033212;28;20111;-79
2020/12/03 09:29:03;;;;;;;12.43;3.95;;;8.00;92.90;;;;;;5035131;28;20454;-75
2020/12/03 09:31:35;;;;;;;15.93;4.57;;;8.00;92.80;;;;;;5034871;28;20021;-75
2020/12/03 09:34:03;;;;;;;14.13;5.75;;;8.00;92.80;;;;;;5034841;28;20033;-75
2020/12/03 09:36:31;;;;;;;17.38;5.35;;;8.00;92.80;;;;;;5035090;28;20025;-75
2020/12/03 09:38:59;;;;;;;12.30;3.88;;;8.00;92.90;;;;;;5032981;28;20067;-76
2020/12/03 09:41:25;;;;;;;12.30;4.22;;;8.00;92.80;;;;;;5033505;28;20494;-76
2020/12/03 09:43:53;;;;;;;10.23;4.78;;;8.00;92.90;;;;;;5034090;28;20025;-76
2020/12/03 09:46:25;;;;;;;14.02;4.55;;;8.00;92.90;;;;;;5033114;28;20107;-76
2020/12/03 09:48:53;;;;;;;;;;;8.00;92.90;;;;;;5034690;28;20021;-76
2020/12/03 09:51:23;;;;;;;10.45;3.65;;;7.90;92.90;;;;;;5033408;28;19913;-75
2020/12/03 09:53:52;;;;;;;15.40;4.82;;;7.90;92.90;;;;;;5033647;28;20037;-76
2020/12/03 09:56:18;;;;;;;17.75;5.60;;;7.90;93.00;;;;;;5033196;28;20172;-76
2020/12/03 09:58:45;;;;;;;12.60;5.05;;;7.80;93.00;;;;;;5032641;28;20381;-75
2020/12/03 10:01:12;;;;;;;14.63;4.43;;;7.80;93.00;;;;;;5033177;28;20033;-76
2020/12/03 10:04:15;;;;;;;14.90;4.13;;;7.80;93.00;;;;;;5033910;28;20065;-78
2020/12/03 10:07:16;;;;;;;13.40;4.50;;;7.90;93.00;;;;;;5033973;28;20025;-77
2020/12/03 10:10:13;;;;;;;12.82;5.97;;;7.80;93.00;;;;;;5033207;28;20470;-77
2020/12/03 10:13:06;;;;;;;19.73;5.20;;;7.80;93.10;;;;;;5033754;28;20112;-80
2020/12/03 10:15:53;;;;;;;13.93;4.88;;;7.80;93.10;;;;;;5033031;28;20036;-74
2020/12/03 10:18:22;;;;;;;15.00;5.30;;;7.80;93.10;;;;;;5034268;28;20036;-74
2020/12/03 10:20:50;;;;;;;14.07;4.20;;;7.80;93.20;;;;;;5032229;28;20026;-76
2020/12/03 10:23:27;;;;;;;9.30;3.38;;;7.80;93.10;;;;;;5033947;28;20021;-75
2020/12/03 10:26:19;;;;;;;8.88;3.53;;;7.80;93.10;;;;;;5033555;28;20582;-75
2020/12/03 10:28:52;;;;;;;10.35;4.38;;;7.80;93.10;;;;;;5033483;28;20457;-75
2020/12/03 10:31:21;;;;;;;13.32;3.72;;;7.70;93.20;;;;;;5032644;28;20025;-75
2020/12/03 10:33:48;;;;;;;12.20;3.95;;;7.70;93.20;;;;;;5033176;28;20028;-75
2020/12/03 10:36:40;;;;;;;9.63;3.63;;;7.70;93.20;;;;;;5032536;28;20458;-75
2020/12/03 10:39:11;;;;;;;13.73;3.67;;;7.80;93.20;;;;;;5032444;28;20021;-75
2020/12/03 10:41:41;;;;;;;11.82;4.60;;;7.80;93.20;;;;;;5034033;28;20055;-75
2020/12/03 10:44:16;;;;;;;14.50;3.47;;;7.70;93.20;;;;;;5033314;28;20025;-75
2020/12/03 10:46:47;;;;;;;14.10;3.75;;;7.80;93.30;;;;;;5031677;28;20033;-76
2020/12/03 10:49:15;;;;;;;10.80;4.43;;;7.80;93.30;;;;;;5033726;28;20026;-76
2020/12/03 10:51:43;;;;;;;18.40;5.43;;;7.80;93.30;;;;;;5033064;28;20056;-75
2020/12/03 10:54:08;;;;;;;12.20;4.88;;;7.80;93.30;;;;;;5033169;28;20086;-75
2020/12/03 10:56:37;;;;;;;11.50;5.00;;;7.80;93.30;;;;;;5033639;28;20381;-75
2020/12/03 10:59:18;;;;;;;11.77;4.57;;;7.70;93.30;;;;;;5031128;28;20028;-75
2020/12/03 11:01:52;;;;;;;11.02;4.32;;;7.70;93.30;;;;;;5032851;28;20025;-75
2020/12/03 11:04:19;;;;;;;12.30;4.82;;;7.70;93.30;;;;;;5031909;28;20553;-75
2020/12/03 11:06:45;;;;;;;12.15;4.32;;;7.70;93.30;;;;;;5032709;28;20484;-76
2020/12/03 11:09:20;;;;;;;12.50;4.35;;;7.70;93.30;;;;;;5031769;28;20025;-75
2020/12/03 11:11:48;;;;;;;11.45;4.22;;;7.70;93.30;;;;;;5030967;28;20029;-76
2020/12/03 11:14:16;;;;;;;17.67;4.72;;;7.70;93.30;;;;;;5032898;28;20081;-75
2020/12/03 11:16:54;;;;;;;16.67;5.68;;;7.70;93.30;;;;;;5031374;28;20385;-83
2020/12/03 11:19:23;;;;;;;16.65;4.82;;;7.70;93.30;;;;;;5031669;28;20116;-75
2020/12/03 11:22:27;;;;;;;11.10;3.58;;;7.70;93.30;;;;;;5032163;28;20416;-76
2020/12/03 11:24:59;;;;;;;11.20;4.88;;;7.70;93.20;;;;;;5031984;28;20089;-76
2020/12/03 11:27:25;;;;;;;15.23;5.45;;;7.70;93.20;;;;;;5031330;28;20052;-75
2020/12/03 11:29:51;;;;;;;22.40;5.90;;;7.70;93.30;;;;;;5032158;28;20032;-76
2020/12/03 11:32:47;;;;;;;13.98;4.03;;;7.70;93.20;;;;;;5031926;28;20025;-76
2020/12/03 11:35:23;;;;;;;13.82;4.68;;;7.70;93.20;;;;;;5047211;28;20025;-76
2020/12/03 11:37:57;;;;;;;15.50;5.28;;;7.70;93.20;;;;;;5030160;28;20028;-76
2020/12/03 11:40:35;;;;;;;14.75;4.40;;;7.80;93.20;;;;;;5030402;28;20091;-75
2020/12/03 11:48:55;;;;;;;6.63;3.65;;;7.80;93.20;;;;;;5031756;28;20472;-75
2020/12/03 11:51:36;;;;;;;14.90;4.95;;;7.80;93.10;;;;;;5031548;28;20034;-75
2020/12/03 11:54:06;;;;;;;15.35;3.83;;;7.80;93.20;;;;;;5029222;28;20030;-75
2020/12/03 11:56:35;;;;;;;22.95;5.18;;;7.80;93.10;;;;;;5030178;28;20042;-75
2020/12/03 11:59:21;;;;;;;12.80;4.75;;;7.80;93.10;;;;;;5030410;28;20033;-75
2020/12/03 12:01:51;;;;;;;12.00;5.10;;;7.90;93.10;;;;;;5031682;28;20026;-75
2020/12/03 12:04:19;;;;;;;16.65;4.95;;;7.90;93.10;;;;;;5031117;28;20021;-75
2020/12/03 12:09:49;;;;;;;15.55;4.22;;;7.90;93.10;;;;;;5032175;28;20113;-74
2020/12/03 12:12:19;;;;;;;11.95;4.03;;;7.90;93.10;;;;;;5032205;28;20029;-75
2020/12/03 12:14:45;;;;;;;8.07;2.95;;;7.90;93.10;;;;;;5030647;28;20448;-82
2020/12/03 12:17:11;;;;;;;20.90;4.15;;;7.90;93.10;;;;;;5030885;28;20014;-74
2020/12/03 12:19:38;;;;;;;7.72;2.80;;;7.90;93.10;;;;;;5030745;28;20021;-75
2020/12/03 12:22:05;;;;;;;7.05;3.08;;;7.90;93.10;;;;;;5030158;28;20026;-75
2020/12/03 12:24:31;;;;;;;13.63;3.42;;;7.90;93.10;;;;;;5030580;28;20126;-75
2020/12/03 12:26:57;;;;;;;9.02;3.83;;;8.00;93.10;;;;;;5031478;28;20520;-75
2020/12/03 12:29:22;;;;;;;12.95;3.40;;;8.00;93.10;;;;;;5030672;28;20072;-75
2020/12/03 12:31:48;;;;;;;13.35;4.38;;;8.00;93.10;;;;;;5030124;28;20437;-76
2020/12/03 12:34:14;;;;;;;9.63;3.08;;;8.00;93.10;;;;;;5030850;28;20131;-75
2020/12/03 12:36:46;;;;;;;12.20;3.85;;;8.00;93.10;;;;;;5032504;28;20026;-75
2020/12/03 12:39:14;;;;;;;11.48;3.83;;;8.00;93.10;;;;;;5048759;28;20133;-76
2020/12/03 12:41:39;;;;;;;10.55;3.70;;;8.00;93.10;;;;;;5036075;28;20536;-76
2020/12/03 12:44:05;;;;;;;13.93;4.22;;;8.00;93.10;;;;;;5033963;28;20112;-75
2020/12/03 12:46:31;;;;;;;7.47;2.65;;;8.00;93.10;;;;;;5034434;28;20152;-76
2020/12/03 12:48:56;;;;;;;9.80;4.30;;;8.00;93.10;;;;;;5033826;28;20017;-76
2020/12/03 12:51:22;;;;;;;8.82;3.70;;;8.10;93.10;;;;;;5034415;28;20026;-76
2020/12/03 12:53:48;;;;;;;11.88;3.95;;;8.00;93.10;;;;;;5033499;28;20021;-77
2020/12/03 12:56:14;;;;;;;8.23;2.72;;;8.00;93.10;;;;;;5034252;28;20603;-76
2020/12/03 12:58:39;;;;;;;10.48;3.67;;;8.00;93.10;;;;;;5035630;28;20449;-76
2020/12/03 13:01:07;;;;;;;11.32;3.95;;;8.10;93.10;;;;;;5033550;28;20389;-76
2020/12/03 13:03:32;;;;;;;9.93;4.28;;;8.10;93.10;;;;;;5034212;28;20021;-74
2020/12/03 13:05:59;;;;;;;8.60;3.47;;;8.10;93.10;;;;;;5034797;28;20144;-74
2020/12/03 13:08:26;;;;;;;10.30;3.65;;;8.10;93.10;;;;;;5035397;28;20022;-73
2020/12/03 13:10:52;;;;;;;10.55;3.50;;;8.10;93.10;;;;;;5033480;28;20036;-75
2020/12/03 13:13:18;;;;;;;9.77;3.15;;;8.10;93.10;;;;;;5033961;28;20014;-75
2020/12/03 13:15:46;;;;;;;10.38;3.40;;;8.10;93.10;;;;;;5035546;28;20044;-74
2020/12/03 13:18:12;;;;;;;10.23;4.18;;;8.10;93.10;;;;;;5034663;28;20025;-74
2020/12/03 13:20:37;;;;;;;8.70;2.92;;;8.10;93.10;;;;;;5035201;28;20105;-76
2020/12/03 13:23:03;;;;;;;9.63;3.03;;;8.10;93.40;;;;;;5033112;28;20714;-74
2020/12/03 13:25:28;;;;;;;11.10;3.75;;;8.20;93.10;;;;;;5035232;28;20022;-76
2020/12/03 13:27:54;;;;;;;11.00;3.85;;;8.10;93.00;;;;;;5033284;28;20025;-76